createdAt,value
2023-01-26T17:01:48.842Z,212.00
2023-01-26T17:03:20.945Z,210.33
2023-01-26T17:04:53.029Z,207.00
2023-01-26T17:06:24.952Z,212.33
2023-01-26T17:07:56.883Z,214.67
2023-01-26T17:09:29.024Z,194.00
2023-01-26T17:11:02.910Z,203.00
2023-01-26T17:12:35.127Z,207.33
2023-01-26T17:14:07.473Z,206.00
2023-01-26T17:15:39.344Z,192.67
2023-01-26T17:17:11.402Z,182.00
2023-01-26T17:18:45.351Z,183.00
2023-01-26T17:20:19.547Z,167.50
2023-01-26T17:21:51.888Z,164.25
2023-01-26T17:23:23.730Z,151.25
2023-01-26T17:24:56.308Z,156.50
2023-01-26T17:26:28.479Z,152.75
2023-01-26T17:28:00.717Z,144.50
2023-01-26T17:29:33.860Z,138.50
2023-01-26T17:31:19.507Z,147.75
2023-01-26T17:32:51.610Z,318.25
2023-01-26T17:34:23.510Z,248.25
2023-01-26T17:36:02.405Z,214.33
2023-01-26T17:37:34.461Z,216.00
2023-01-26T17:39:06.465Z,202.00
2023-01-26T17:40:38.633Z,198.00
2023-01-26T17:42:10.675Z,212.33
2023-01-26T17:43:42.564Z,203.67
2023-01-26T17:45:14.596Z,198.33
2023-01-26T17:46:46.555Z,207.33
2023-01-26T17:48:18.700Z,202.00
2023-01-26T17:49:50.619Z,223.67
2023-01-26T17:51:23.411Z,214.67
2023-01-26T17:52:55.273Z,214.67
2023-01-26T17:54:27.590Z,226.00
2023-01-26T17:55:59.710Z,206.00
2023-01-26T17:57:31.978Z,208.00
2023-01-26T17:59:04.018Z,203.33
2023-01-26T18:00:35.882Z,206.33
2023-01-26T18:02:07.876Z,217.33
2023-01-26T18:03:40.962Z,200.67
2023-01-26T18:05:13.134Z,200.67
2023-01-26T18:06:45.437Z,211.67
2023-01-26T18:08:17.820Z,204.00
2023-01-26T18:09:49.977Z,229.00
2023-01-26T18:11:22.121Z,202.33
2023-01-26T18:12:54.111Z,213.33
2023-01-26T18:14:26.033Z,218.67
2023-01-26T18:15:58.312Z,232.33
2023-01-26T18:17:30.159Z,219.00
2023-01-26T18:19:04.549Z,233.67
2023-01-26T18:20:36.882Z,225.67
2023-01-26T18:22:08.772Z,216.67
2023-01-26T18:23:43.290Z,228.67
2023-01-26T18:25:17.761Z,537.17
2023-01-26T18:26:49.980Z,357.75
2023-01-26T18:28:22.042Z,300.25
2023-01-26T18:29:54.247Z,290.25
2023-01-26T18:31:31.418Z,258.75
2023-01-26T18:33:03.357Z,266.50
2023-01-26T18:34:35.264Z,263.25
2023-01-26T18:36:09.821Z,258.00
2023-01-26T18:37:43.056Z,259.50
2023-01-26T18:39:16.853Z,259.00
2023-01-26T18:40:48.785Z,246.50
2023-01-26T18:42:20.607Z,245.00
2023-01-26T18:43:53.405Z,251.33
2023-01-26T18:45:25.366Z,230.67
2023-01-26T18:46:57.314Z,241.00
2023-01-26T18:48:29.852Z,220.33
2023-01-26T18:50:01.754Z,254.00
2023-01-26T18:51:34.784Z,251.25
2023-01-26T18:53:07.340Z,241.00
2023-01-26T18:54:39.198Z,201.33
2023-01-26T18:56:12.542Z,198.67
2023-01-26T18:57:44.650Z,216.33
2023-01-26T18:59:17.967Z,215.33
2023-01-26T19:00:50.117Z,204.33
2023-01-26T19:02:22.199Z,197.00
2023-01-26T19:03:58.759Z,206.00
2023-01-26T19:05:31.174Z,209.00
2023-01-26T19:07:03.103Z,213.33
2023-01-26T19:08:35.082Z,195.00
2023-01-26T19:10:07.487Z,204.67
2023-01-26T19:11:39.582Z,199.33
2023-01-26T19:13:11.485Z,393.00
2023-01-26T19:14:43.458Z,268.00
2023-01-26T19:16:15.574Z,254.00
2023-01-26T19:17:47.484Z,231.00
2023-01-26T19:19:19.585Z,235.33
2023-01-26T19:20:58.126Z,225.00
2023-01-26T19:22:30.078Z,219.67
2023-01-26T19:24:07.823Z,211.67
2023-01-26T19:25:39.815Z,217.67
2023-01-26T19:27:11.786Z,200.00
2023-01-26T19:28:43.822Z,195.33
2023-01-26T19:30:16.070Z,430.00
2023-01-26T19:31:47.968Z,318.00
2023-01-26T19:33:28.277Z,260.25
2023-01-26T19:35:00.141Z,258.50
2023-01-26T19:36:33.273Z,241.25
2023-01-26T19:38:05.448Z,240.00
2023-01-26T19:39:37.836Z,242.33
2023-01-26T19:41:09.891Z,226.67
2023-01-26T19:42:41.820Z,230.33
2023-01-26T19:44:13.748Z,224.33
2023-01-26T19:45:49.845Z,212.33
2023-01-26T19:47:21.745Z,206.00
2023-01-26T19:48:53.654Z,207.67
2023-01-26T19:50:25.583Z,196.33
2023-01-26T19:51:57.559Z,206.33
2023-01-26T19:53:30.793Z,241.00
2023-01-26T19:55:02.792Z,218.33
2023-01-26T19:56:38.106Z,401.40
2023-01-26T19:58:10.541Z,278.75
2023-01-26T19:59:42.391Z,256.00
2023-01-26T20:01:14.475Z,230.67
2023-01-26T20:02:47.465Z,223.33
2023-01-26T20:04:19.348Z,203.67
2023-01-26T20:05:51.370Z,205.00
2023-01-26T20:07:23.258Z,203.00
2023-01-26T20:08:55.328Z,187.33
2023-01-26T20:10:27.326Z,185.67
2023-01-26T20:11:59.203Z,183.50
2023-01-26T20:13:31.484Z,176.50
2023-01-26T20:15:04.241Z,172.50
2023-01-26T20:16:36.359Z,156.75
2023-01-26T20:18:08.292Z,168.00
2023-01-26T20:19:40.161Z,169.50
2023-01-26T20:21:12.112Z,173.50
2023-01-26T20:22:43.996Z,164.25
2023-01-26T20:24:16.021Z,150.50
2023-01-26T20:25:47.963Z,152.50
2023-01-26T20:27:20.017Z,153.25
2023-01-26T20:28:52.004Z,159.50
2023-01-26T20:30:24.069Z,154.25
2023-01-26T20:31:56.187Z,143.00
2023-01-26T20:33:28.224Z,157.00
2023-01-26T20:35:00.161Z,160.00
2023-01-26T20:36:33.209Z,145.00
2023-01-26T20:38:05.024Z,149.50
2023-01-26T20:39:37.032Z,148.00
2023-01-26T20:41:10.220Z,149.00
2023-01-26T20:42:42.045Z,140.00
2023-01-26T20:44:14.167Z,137.00
2023-01-26T20:45:46.034Z,134.75
2023-01-26T20:47:17.909Z,131.00
2023-01-26T20:48:51.971Z,133.75
2023-01-26T20:50:23.952Z,119.00
2023-01-26T20:51:56.094Z,131.75
2023-01-26T20:53:27.968Z,138.00
2023-01-26T20:55:00.102Z,159.00
2023-01-26T20:56:32.689Z,158.50
2023-01-26T20:58:06.793Z,151.50
2023-01-26T20:59:38.854Z,158.00
2023-01-26T21:01:15.361Z,228.00
2023-01-26T21:02:47.274Z,190.00
2023-01-26T21:04:19.145Z,156.25
2023-01-26T21:05:51.022Z,165.50
2023-01-26T21:07:22.970Z,167.75
2023-01-26T21:08:56.465Z,176.00
2023-01-26T21:10:28.388Z,162.25
2023-01-26T21:12:00.393Z,151.75
2023-01-26T21:13:32.263Z,158.50
2023-01-26T21:15:07.507Z,152.00
2023-01-26T21:16:39.557Z,159.00
2023-01-26T21:18:11.508Z,150.25
2023-01-26T21:19:43.300Z,153.25
2023-01-26T21:21:17.794Z,148.75
2023-01-26T21:22:49.855Z,142.00
2023-01-26T21:24:22.275Z,134.00
2023-01-26T21:26:01.353Z,135.50
2023-01-26T21:27:33.303Z,137.25
2023-01-26T21:29:05.707Z,145.00
2023-01-26T21:30:37.591Z,140.75
2023-01-26T21:32:09.584Z,145.25
2023-01-26T21:33:45.797Z,147.00
2023-01-26T21:35:18.013Z,153.75
2023-01-26T21:36:49.890Z,146.75
2023-01-26T21:38:21.747Z,153.75
2023-01-26T21:39:53.660Z,148.00
2023-01-26T21:41:48.653Z,138.75
2023-01-26T21:43:20.539Z,140.00
2023-01-26T21:45:10.938Z,138.50
2023-01-26T21:46:44.688Z,135.00
2023-01-26T21:48:28.424Z,145.50
2023-01-26T21:50:00.297Z,132.00
2023-01-26T21:51:51.107Z,132.25
2023-01-26T21:53:23.014Z,133.50
2023-01-26T21:54:54.934Z,127.50
2023-01-26T21:56:26.778Z,104.75
2023-01-26T21:58:17.200Z,121.25
2023-01-26T21:59:49.097Z,125.25
2023-01-26T22:01:21.327Z,132.75
2023-01-26T22:02:54.643Z,140.50
2023-01-26T22:04:28.574Z,141.00
2023-01-26T22:06:00.713Z,133.00
2023-01-26T22:07:32.676Z,132.00
2023-01-26T22:09:05.310Z,136.00
2023-01-26T22:10:37.264Z,131.25
2023-01-26T22:12:09.169Z,123.50
2023-01-26T22:13:42.475Z,128.75
2023-01-26T22:15:14.633Z,134.75
2023-01-26T22:16:46.634Z,158.25
2023-01-26T22:18:18.627Z,148.25
2023-01-26T22:19:50.693Z,124.25
2023-01-26T22:21:22.741Z,122.75
2023-01-26T22:22:54.797Z,132.25
2023-01-26T22:24:26.795Z,137.50
2023-01-26T22:25:58.764Z,140.00
2023-01-26T22:27:30.693Z,138.25
2023-01-26T22:29:04.131Z,134.75
2023-01-26T22:30:36.761Z,134.75
2023-01-26T22:32:08.817Z,124.75
2023-01-26T22:33:40.774Z,123.25
2023-01-26T22:35:12.638Z,135.00
2023-01-26T22:36:44.476Z,123.50
2023-01-26T22:38:16.443Z,123.00
2023-01-26T22:39:49.205Z,121.75
2023-01-26T22:41:25.687Z,120.25
2023-01-26T22:42:57.623Z,106.50
2023-01-26T22:44:29.495Z,130.00
2023-01-26T22:46:05.018Z,118.00
2023-01-26T22:47:38.680Z,103.40
2023-01-26T22:49:10.561Z,262.25
2023-01-26T22:50:42.806Z,214.67
2023-01-26T22:52:14.611Z,180.25
2023-01-26T22:53:46.594Z,164.25
2023-01-26T22:55:18.489Z,140.50
2023-01-26T22:56:50.349Z,134.00
2023-01-26T22:58:22.206Z,130.00
2023-01-26T22:59:54.227Z,133.75
2023-01-26T23:01:29.829Z,121.50
2023-01-26T23:03:02.894Z,121.25
2023-01-26T23:04:34.809Z,111.25
2023-01-26T23:06:07.591Z,111.00
2023-01-26T23:07:39.421Z,116.75
2023-01-26T23:09:11.333Z,106.75
2023-01-26T23:10:43.336Z,117.00
2023-01-26T23:12:15.362Z,101.80
2023-01-26T23:13:48.218Z,104.00
2023-01-26T23:15:20.071Z,106.40
2023-01-26T23:16:52.030Z,103.60
2023-01-26T23:18:23.954Z,92.00
2023-01-26T23:19:56.298Z,96.60
2023-01-26T23:21:28.585Z,104.80
2023-01-26T23:23:00.454Z,93.25
2023-01-26T23:24:32.400Z,84.75
2023-01-26T23:26:04.369Z,82.75
2023-01-26T23:27:36.304Z,84.75
2023-01-26T23:29:08.141Z,83.00
2023-01-26T23:30:40.042Z,73.50
2023-01-26T23:32:11.890Z,85.50
2023-01-26T23:33:43.809Z,75.25
